sensor_id;sensor_type;location;lat;lon;timestamp;temperature;humidity
68764;DHT22;55754;52.038;5.566;2022-09-02T00:01:32;18.80;42.70
68764;DHT22;55754;52.038;5.566;2022-09-02T00:04:05;18.80;42.80
68764;DHT22;55754;52.038;5.566;2022-09-02T00:06:32;18.70;42.80
68764;DHT22;55754;52.038;5.566;2022-09-02T00:08:58;18.80;42.80
68764;DHT22;55754;52.038;5.566;2022-09-02T00:11:27;18.80;42.90
68764;DHT22;55754;52.038;5.566;2022-09-02T00:13:54;18.70;43.00
68764;DHT22;55754;52.038;5.566;2022-09-02T00:16:20;18.70;43.00
68764;DHT22;55754;52.038;5.566;2022-09-02T00:18:48;18.70;43.00
68764;DHT22;55754;52.038;5.566;2022-09-02T00:21:16;18.70;43.10
68764;DHT22;55754;52.038;5.566;2022-09-02T00:23:43;18.60;43.10
68764;DHT22;55754;52.038;5.566;2022-09-02T00:26:10;18.60;43.10
68764;DHT22;55754;52.038;5.566;2022-09-02T00:28:35;18.60;43.20
68764;DHT22;55754;52.038;5.566;2022-09-02T00:31:01;18.70;43.20
68764;DHT22;55754;52.038;5.566;2022-09-02T00:33:27;18.60;43.10
68764;DHT22;55754;52.038;5.566;2022-09-02T00:35:53;18.60;43.20
68764;DHT22;55754;52.038;5.566;2022-09-02T00:38:18;18.60;43.20
68764;DHT22;55754;52.038;5.566;2022-09-02T00:40:47;18.70;43.20
68764;DHT22;55754;52.038;5.566;2022-09-02T00:43:25;18.60;43.30
68764;DHT22;55754;52.038;5.566;2022-09-02T00:45:51;18.60;43.40
68764;DHT22;55754;52.038;5.566;2022-09-02T00:48:18;18.60;43.40
68764;DHT22;55754;52.038;5.566;2022-09-02T00:50:43;18.50;43.50
68764;DHT22;55754;52.038;5.566;2022-09-02T00:53:11;18.50;43.50
68764;DHT22;55754;52.038;5.566;2022-09-02T00:55:45;18.60;43.60
68764;DHT22;55754;52.038;5.566;2022-09-02T00:58:26;18.60;43.60
68764;DHT22;55754;52.038;5.566;2022-09-02T01:00:56;18.60;43.60
68764;DHT22;55754;52.038;5.566;2022-09-02T01:03:25;18.50;43.60
68764;DHT22;55754;52.038;5.566;2022-09-02T01:05:52;18.50;44.60
68764;DHT22;55754;52.038;5.566;2022-09-02T01:08:23;18.50;43.80
68764;DHT22;55754;52.038;5.566;2022-09-02T01:10:50;18.40;43.80
68764;DHT22;55754;52.038;5.566;2022-09-02T01:13:19;18.40;43.90
68764;DHT22;55754;52.038;5.566;2022-09-02T01:15:52;18.40;44.00
68764;DHT22;55754;52.038;5.566;2022-09-02T01:18:21;18.40;44.00
68764;DHT22;55754;52.038;5.566;2022-09-02T01:20:49;18.40;44.10
68764;DHT22;55754;52.038;5.566;2022-09-02T01:23:16;18.30;44.10
68764;DHT22;55754;52.038;5.566;2022-09-02T01:25:42;18.40;44.20
68764;DHT22;55754;52.038;5.566;2022-09-02T01:28:14;18.30;44.30
68764;DHT22;55754;52.038;5.566;2022-09-02T01:30:44;18.30;44.40
68764;DHT22;55754;52.038;5.566;2022-09-02T01:33:11;18.30;44.40
68764;DHT22;55754;52.038;5.566;2022-09-02T01:35:37;18.20;44.40
68764;DHT22;55754;52.038;5.566;2022-09-02T01:38:03;18.20;44.50
68764;DHT22;55754;52.038;5.566;2022-09-02T01:40:30;18.20;44.50
68764;DHT22;55754;52.038;5.566;2022-09-02T01:43:12;18.20;44.60
68764;DHT22;55754;52.038;5.566;2022-09-02T01:45:39;18.10;44.70
68764;DHT22;55754;52.038;5.566;2022-09-02T01:48:06;18.10;44.80
68764;DHT22;55754;52.038;5.566;2022-09-02T01:50:33;18.10;44.80
68764;DHT22;55754;52.038;5.566;2022-09-02T01:53:00;18.20;45.00
68764;DHT22;55754;52.038;5.566;2022-09-02T01:55:29;18.00;45.10
68764;DHT22;55754;52.038;5.566;2022-09-02T01:57:54;18.00;45.20
68764;DHT22;55754;52.038;5.566;2022-09-02T02:00:20;17.90;45.20
68764;DHT22;55754;52.038;5.566;2022-09-02T02:02:46;17.90;46.20
68764;DHT22;55754;52.038;5.566;2022-09-02T02:05:12;17.90;45.20
68764;DHT22;55754;52.038;5.566;2022-09-02T02:07:40;17.90;45.30
68764;DHT22;55754;52.038;5.566;2022-09-02T02:10:07;17.80;45.20
68764;DHT22;55754;52.038;5.566;2022-09-02T02:12:35;17.80;45.20
68764;DHT22;55754;52.038;5.566;2022-09-02T02:15:05;17.80;45.20
68764;DHT22;55754;52.038;5.566;2022-09-02T02:17:31;17.80;45.50
68764;DHT22;55754;52.038;5.566;2022-09-02T02:19:57;17.70;45.80
68764;DHT22;55754;52.038;5.566;2022-09-02T02:22:23;17.70;45.80
68764;DHT22;55754;52.038;5.566;2022-09-02T02:24:49;17.70;45.70
68764;DHT22;55754;52.038;5.566;2022-09-02T02:27:14;17.70;45.70
68764;DHT22;55754;52.038;5.566;2022-09-02T02:29:40;17.70;45.80
68764;DHT22;55754;52.038;5.566;2022-09-02T02:32:06;17.60;45.80
68764;DHT22;55754;52.038;5.566;2022-09-02T02:34:32;17.70;45.90
68764;DHT22;55754;52.038;5.566;2022-09-02T02:36:59;17.60;46.00
68764;DHT22;55754;52.038;5.566;2022-09-02T02:39:25;17.50;46.30
68764;DHT22;55754;52.038;5.566;2022-09-02T02:41:50;17.50;46.20
68764;DHT22;55754;52.038;5.566;2022-09-02T02:44:16;17.50;46.30
68764;DHT22;55754;52.038;5.566;2022-09-02T02:46:42;17.50;46.30
68764;DHT22;55754;52.038;5.566;2022-09-02T02:49:08;17.50;46.40
68764;DHT22;55754;52.038;5.566;2022-09-02T02:51:34;17.50;46.20
68764;DHT22;55754;52.038;5.566;2022-09-02T02:54:01;17.50;46.40
68764;DHT22;55754;52.038;5.566;2022-09-02T02:56:28;17.50;46.40
68764;DHT22;55754;52.038;5.566;2022-09-02T02:58:55;17.40;46.40
68764;DHT22;55754;52.038;5.566;2022-09-02T03:01:21;17.40;46.50
68764;DHT22;55754;52.038;5.566;2022-09-02T03:03:47;17.40;46.50
68764;DHT22;55754;52.038;5.566;2022-09-02T03:06:13;17.40;47.70
68764;DHT22;55754;52.038;5.566;2022-09-02T03:08:39;17.40;46.60
68764;DHT22;55754;52.038;5.566;2022-09-02T03:11:05;17.40;46.50
68764;DHT22;55754;52.038;5.566;2022-09-02T03:13:33;17.40;46.50
68764;DHT22;55754;52.038;5.566;2022-09-02T03:15:59;17.50;46.50
68764;DHT22;55754;52.038;5.566;2022-09-02T03:18:25;17.50;46.50
68764;DHT22;55754;52.038;5.566;2022-09-02T03:20:50;17.40;46.60
68764;DHT22;55754;52.038;5.566;2022-09-02T03:23:16;17.40;46.60
68764;DHT22;55754;52.038;5.566;2022-09-02T03:25:44;17.40;46.70
68764;DHT22;55754;52.038;5.566;2022-09-02T03:28:10;17.40;46.80
68764;DHT22;55754;52.038;5.566;2022-09-02T03:30:38;17.30;46.90
68764;DHT22;55754;52.038;5.566;2022-09-02T03:33:04;17.30;46.80
68764;DHT22;55754;52.038;5.566;2022-09-02T03:35:31;17.20;47.10
68764;DHT22;55754;52.038;5.566;2022-09-02T03:37:58;17.20;47.20
68764;DHT22;55754;52.038;5.566;2022-09-02T03:40:26;17.20;47.10
68764;DHT22;55754;52.038;5.566;2022-09-02T03:42:52;17.20;47.20
68764;DHT22;55754;52.038;5.566;2022-09-02T03:45:18;17.10;47.30
68764;DHT22;55754;52.038;5.566;2022-09-02T03:47:45;17.10;47.50
68764;DHT22;55754;52.038;5.566;2022-09-02T03:50:34;17.20;47.40
68764;DHT22;55754;52.038;5.566;2022-09-02T03:53:01;17.10;47.50
68764;DHT22;55754;52.038;5.566;2022-09-02T03:55:27;17.10;47.40
68764;DHT22;55754;52.038;5.566;2022-09-02T03:57:54;17.20;47.60
68764;DHT22;55754;52.038;5.566;2022-09-02T04:00:22;17.10;47.60
68764;DHT22;55754;52.038;5.566;2022-09-02T04:02:52;17.20;47.50
68764;DHT22;55754;52.038;5.566;2022-09-02T04:05:20;17.10;47.60
68764;DHT22;55754;52.038;5.566;2022-09-02T04:07:47;17.10;47.50
68764;DHT22;55754;52.038;5.566;2022-09-02T04:10:13;17.10;47.50
68764;DHT22;55754;52.038;5.566;2022-09-02T04:12:39;17.10;47.50
68764;DHT22;55754;52.038;5.566;2022-09-02T04:15:07;17.10;47.60
68764;DHT22;55754;52.038;5.566;2022-09-02T04:17:38;17.10;47.80
68764;DHT22;55754;52.038;5.566;2022-09-02T04:20:06;17.10;47.70
68764;DHT22;55754;52.038;5.566;2022-09-02T04:22:32;17.00;47.70
68764;DHT22;55754;52.038;5.566;2022-09-02T04:24:58;17.00;47.80
68764;DHT22;55754;52.038;5.566;2022-09-02T04:27:24;16.90;47.90
68764;DHT22;55754;52.038;5.566;2022-09-02T04:29:50;16.90;48.10
68764;DHT22;55754;52.038;5.566;2022-09-02T04:32:15;16.90;48.00
68764;DHT22;55754;52.038;5.566;2022-09-02T04:34:41;16.90;47.90
68764;DHT22;55754;52.038;5.566;2022-09-02T04:37:07;16.90;48.00
68764;DHT22;55754;52.038;5.566;2022-09-02T04:39:33;16.90;48.00
68764;DHT22;55754;52.038;5.566;2022-09-02T04:41:59;16.90;48.00
68764;DHT22;55754;52.038;5.566;2022-09-02T04:44:24;16.90;48.00
68764;DHT22;55754;52.038;5.566;2022-09-02T04:46:50;16.90;48.00
68764;DHT22;55754;52.038;5.566;2022-09-02T04:49:17;16.90;48.10
68764;DHT22;55754;52.038;5.566;2022-09-02T04:51:42;16.90;48.30
68764;DHT22;55754;52.038;5.566;2022-09-02T04:54:08;16.90;48.20
68764;DHT22;55754;52.038;5.566;2022-09-02T04:56:34;16.80;48.30
68764;DHT22;55754;52.038;5.566;2022-09-02T04:59:00;16.80;48.30
68764;DHT22;55754;52.038;5.566;2022-09-02T05:01:29;16.80;48.30
68764;DHT22;55754;52.038;5.566;2022-09-02T05:03:56;16.80;48.50
68764;DHT22;55754;52.038;5.566;2022-09-02T05:06:24;16.80;48.40
68764;DHT22;55754;52.038;5.566;2022-09-02T05:08:52;16.80;48.60
68764;DHT22;55754;52.038;5.566;2022-09-02T05:11:22;16.80;48.60
68764;DHT22;55754;52.038;5.566;2022-09-02T05:13:49;16.80;48.50
68764;DHT22;55754;52.038;5.566;2022-09-02T05:16:20;16.80;48.60
68764;DHT22;55754;52.038;5.566;2022-09-02T05:18:46;16.80;48.70
68764;DHT22;55754;52.038;5.566;2022-09-02T05:21:12;16.80;48.70
68764;DHT22;55754;52.038;5.566;2022-09-02T05:23:38;16.80;48.60
68764;DHT22;55754;52.038;5.566;2022-09-02T05:26:08;16.80;48.70
68764;DHT22;55754;52.038;5.566;2022-09-02T05:28:35;16.90;48.80
68764;DHT22;55754;52.038;5.566;2022-09-02T05:31:10;17.00;48.70
68764;DHT22;55754;52.038;5.566;2022-09-02T05:33:37;17.10;48.70
68764;DHT22;55754;52.038;5.566;2022-09-02T05:36:07;17.20;48.20
68764;DHT22;55754;52.038;5.566;2022-09-02T05:38:33;17.30;49.10
68764;DHT22;55754;52.038;5.566;2022-09-02T05:41:04;17.40;47.80
68764;DHT22;55754;52.038;5.566;2022-09-02T05:43:32;17.60;47.60
68764;DHT22;55754;52.038;5.566;2022-09-02T05:46:05;17.70;47.30
68764;DHT22;55754;52.038;5.566;2022-09-02T05:48:35;17.80;47.10
68764;DHT22;55754;52.038;5.566;2022-09-02T05:51:21;17.90;46.90
68764;DHT22;55754;52.038;5.566;2022-09-02T05:53:51;18.10;46.70
68764;DHT22;55754;52.038;5.566;2022-09-02T05:56:17;18.20;46.40
68764;DHT22;55754;52.038;5.566;2022-09-02T05:58:43;18.20;46.10
68764;DHT22;55754;52.038;5.566;2022-09-02T06:01:10;18.40;46.10
68764;DHT22;55754;52.038;5.566;2022-09-02T06:03:37;18.50;45.60
68764;DHT22;55754;52.038;5.566;2022-09-02T06:06:03;18.60;45.60
68764;DHT22;55754;52.038;5.566;2022-09-02T06:08:29;18.70;45.50
68764;DHT22;55754;52.038;5.566;2022-09-02T06:10:55;18.90;45.20
68764;DHT22;55754;52.038;5.566;2022-09-02T06:13:21;19.00;44.80
68764;DHT22;55754;52.038;5.566;2022-09-02T06:15:48;19.20;44.70
68764;DHT22;55754;52.038;5.566;2022-09-02T06:18:16;19.30;44.50
68764;DHT22;55754;52.038;5.566;2022-09-02T06:20:46;19.40;44.30
68764;DHT22;55754;52.038;5.566;2022-09-02T06:23:13;19.50;44.00
68764;DHT22;55754;52.038;5.566;2022-09-02T06:25:41;19.60;43.90
68764;DHT22;55754;52.038;5.566;2022-09-02T06:28:08;19.70;43.70
68764;DHT22;55754;52.038;5.566;2022-09-02T06:30:34;19.80;43.60
68764;DHT22;55754;52.038;5.566;2022-09-02T06:33:00;19.80;43.40
68764;DHT22;55754;52.038;5.566;2022-09-02T06:35:29;19.70;43.50
68764;DHT22;55754;52.038;5.566;2022-09-02T06:37:57;19.60;43.40
68764;DHT22;55754;52.038;5.566;2022-09-02T06:40:23;19.70;43.50
68764;DHT22;55754;52.038;5.566;2022-09-02T06:42:48;19.60;43.10
68764;DHT22;55754;52.038;5.566;2022-09-02T06:45:15;19.50;43.30
68764;DHT22;55754;52.038;5.566;2022-09-02T06:47:40;19.50;43.50
68764;DHT22;55754;52.038;5.566;2022-09-02T06:50:07;19.50;43.60
68764;DHT22;55754;52.038;5.566;2022-09-02T06:52:33;19.40;43.60
68764;DHT22;55754;52.038;5.566;2022-09-02T06:54:59;19.30;43.80
68764;DHT22;55754;52.038;5.566;2022-09-02T06:57:25;19.30;44.00
68764;DHT22;55754;52.038;5.566;2022-09-02T06:59:51;19.40;44.10
68764;DHT22;55754;52.038;5.566;2022-09-02T07:02:16;19.30;44.10
68764;DHT22;55754;52.038;5.566;2022-09-02T07:04:42;19.10;44.20
68764;DHT22;55754;52.038;5.566;2022-09-02T07:07:26;19.10;44.60
68764;DHT22;55754;52.038;5.566;2022-09-02T07:09:53;19.20;44.60
68764;DHT22;55754;52.038;5.566;2022-09-02T07:12:20;19.20;44.80
68764;DHT22;55754;52.038;5.566;2022-09-02T07:14:45;19.40;44.80
68764;DHT22;55754;52.038;5.566;2022-09-02T07:17:14;19.60;44.80
68764;DHT22;55754;52.038;5.566;2022-09-02T07:19:46;19.70;44.60
68764;DHT22;55754;52.038;5.566;2022-09-02T07:22:12;20.00;44.10
68764;DHT22;55754;52.038;5.566;2022-09-02T07:24:38;20.40;43.70
68764;DHT22;55754;52.038;5.566;2022-09-02T07:27:05;20.80;43.60
68764;DHT22;55754;52.038;5.566;2022-09-02T07:29:30;21.00;43.00
68764;DHT22;55754;52.038;5.566;2022-09-02T07:31:57;21.20;42.70
68764;DHT22;55754;52.038;5.566;2022-09-02T07:34:23;21.40;42.40
68764;DHT22;55754;52.038;5.566;2022-09-02T07:36:48;21.70;42.20
68764;DHT22;55754;52.038;5.566;2022-09-02T07:39:15;22.00;41.90
68764;DHT22;55754;52.038;5.566;2022-09-02T07:41:44;22.20;41.00
68764;DHT22;55754;52.038;5.566;2022-09-02T07:44:10;22.50;40.90
68764;DHT22;55754;52.038;5.566;2022-09-02T07:46:37;22.50;39.60
68764;DHT22;55754;52.038;5.566;2022-09-02T07:49:06;22.60;39.50
68764;DHT22;55754;52.038;5.566;2022-09-02T07:51:33;22.60;39.00
68764;DHT22;55754;52.038;5.566;2022-09-02T07:54:00;22.60;39.50
68764;DHT22;55754;52.038;5.566;2022-09-02T07:56:26;22.70;39.30
68764;DHT22;55754;52.038;5.566;2022-09-02T07:58:52;22.90;39.10
68764;DHT22;55754;52.038;5.566;2022-09-02T08:01:18;23.00;38.50
68764;DHT22;55754;52.038;5.566;2022-09-02T08:03:45;23.00;38.40
68764;DHT22;55754;52.038;5.566;2022-09-02T08:06:12;23.10;38.30
68764;DHT22;55754;52.038;5.566;2022-09-02T08:08:39;23.00;38.10
68764;DHT22;55754;52.038;5.566;2022-09-02T08:11:05;23.00;38.50
68764;DHT22;55754;52.038;5.566;2022-09-02T08:13:31;22.90;38.30
68764;DHT22;55754;52.038;5.566;2022-09-02T08:15:57;22.70;38.20
68764;DHT22;55754;52.038;5.566;2022-09-02T08:18:23;22.60;38.30
68764;DHT22;55754;52.038;5.566;2022-09-02T08:20:49;22.50;38.50
68764;DHT22;55754;52.038;5.566;2022-09-02T08:23:15;22.40;39.30
68764;DHT22;55754;52.038;5.566;2022-09-02T08:25:41;22.40;38.70
68764;DHT22;55754;52.038;5.566;2022-09-02T08:28:07;22.30;38.70
68764;DHT22;55754;52.038;5.566;2022-09-02T08:30:33;22.30;39.00
68764;DHT22;55754;52.038;5.566;2022-09-02T08:32:59;22.50;39.20
68764;DHT22;55754;52.038;5.566;2022-09-02T08:35:25;22.50;39.00
68764;DHT22;55754;52.038;5.566;2022-09-02T08:37:51;22.40;39.10
68764;DHT22;55754;52.038;5.566;2022-09-02T08:40:19;22.40;39.30
68764;DHT22;55754;52.038;5.566;2022-09-02T08:42:48;22.40;39.30
68764;DHT22;55754;52.038;5.566;2022-09-02T08:45:29;22.40;39.50
68764;DHT22;55754;52.038;5.566;2022-09-02T08:50:39;22.30;39.60
68764;DHT22;55754;52.038;5.566;2022-09-02T08:53:08;22.20;39.90
68764;DHT22;55754;52.038;5.566;2022-09-02T08:55:51;22.30;39.80
68764;DHT22;55754;52.038;5.566;2022-09-02T08:58:21;22.30;39.90
68764;DHT22;55754;52.038;5.566;2022-09-02T09:04:20;22.30;40.10
68764;DHT22;55754;52.038;5.566;2022-09-02T09:17:50;22.40;40.60
68764;DHT22;55754;52.038;5.566;2022-09-02T09:20:20;22.40;40.60
68764;DHT22;55754;52.038;5.566;2022-09-02T09:22:48;22.50;40.70
68764;DHT22;55754;52.038;5.566;2022-09-02T09:25:16;22.60;40.90
68764;DHT22;55754;52.038;5.566;2022-09-02T09:27:42;22.60;40.50
68764;DHT22;55754;52.038;5.566;2022-09-02T09:30:11;22.60;40.50
68764;DHT22;55754;52.038;5.566;2022-09-02T09:32:48;22.60;40.60
68764;DHT22;55754;52.038;5.566;2022-09-02T09:35:17;22.70;41.80
68764;DHT22;55754;52.038;5.566;2022-09-02T09:37:50;22.80;40.80
68764;DHT22;55754;52.038;5.566;2022-09-02T09:42:42;23.00;40.70
68764;DHT22;55754;52.038;5.566;2022-09-02T09:45:39;23.00;40.30
68764;DHT22;55754;52.038;5.566;2022-09-02T09:50:37;23.20;40.40
68764;DHT22;55754;52.038;5.566;2022-09-02T09:53:30;23.30;40.30
68764;DHT22;55754;52.038;5.566;2022-09-02T09:58:31;23.40;40.10
68764;DHT22;55754;52.038;5.566;2022-09-02T10:00:57;23.50;40.30
68764;DHT22;55754;52.038;5.566;2022-09-02T10:03:29;23.50;40.20
68764;DHT22;55754;52.038;5.566;2022-09-02T10:06:22;23.60;41.10
68764;DHT22;55754;52.038;5.566;2022-09-02T10:08:57;23.70;39.70
68764;DHT22;55754;52.038;5.566;2022-09-02T10:11:26;23.70;39.80
68764;DHT22;55754;52.038;5.566;2022-09-02T10:14:07;23.70;39.80
68764;DHT22;55754;52.038;5.566;2022-09-02T10:17:07;23.80;39.50
68764;DHT22;55754;52.038;5.566;2022-09-02T10:25:36;24.00;39.60
68764;DHT22;55754;52.038;5.566;2022-09-02T10:28:29;24.10;38.80
68764;DHT22;55754;52.038;5.566;2022-09-02T10:39:32;24.20;39.00
68764;DHT22;55754;52.038;5.566;2022-09-02T10:42:22;24.30;38.90
68764;DHT22;55754;52.038;5.566;2022-09-02T10:54:12;24.50;39.30
68764;DHT22;55754;52.038;5.566;2022-09-02T10:56:51;24.60;38.20
68764;DHT22;55754;52.038;5.566;2022-09-02T11:02:07;24.60;38.10
68764;DHT22;55754;52.038;5.566;2022-09-02T11:07:26;24.70;38.00
68764;DHT22;55754;52.038;5.566;2022-09-02T11:09:56;24.80;38.10
68764;DHT22;55754;52.038;5.566;2022-09-02T11:25:42;25.20;36.00
68764;DHT22;55754;52.038;5.566;2022-09-02T11:28:33;25.30;36.30
68764;DHT22;55754;52.038;5.566;2022-09-02T11:34:03;25.40;35.70
68764;DHT22;55754;52.038;5.566;2022-09-02T11:36:40;25.40;35.70
68764;DHT22;55754;52.038;5.566;2022-09-02T11:39:24;25.40;35.40
68764;DHT22;55754;52.038;5.566;2022-09-02T11:53:25;25.50;34.10
68764;DHT22;55754;52.038;5.566;2022-09-02T11:56:02;25.60;33.70
68764;DHT22;55754;52.038;5.566;2022-09-02T12:03:27;25.90;32.60
68764;DHT22;55754;52.038;5.566;2022-09-02T12:06:11;25.80;32.60
68764;DHT22;55754;52.038;5.566;2022-09-02T12:11:08;25.70;32.10
68764;DHT22;55754;52.038;5.566;2022-09-02T12:13:44;25.80;32.30
68764;DHT22;55754;52.038;5.566;2022-09-02T12:21:35;26.10;31.20
68764;DHT22;55754;52.038;5.566;2022-09-02T12:24:21;26.20;31.60
68764;DHT22;55754;52.038;5.566;2022-09-02T12:31:46;26.30;30.50
68764;DHT22;55754;52.038;5.566;2022-09-02T12:36:49;26.50;31.40
68764;DHT22;55754;52.038;5.566;2022-09-02T12:52:48;26.20;30.80
68764;DHT22;55754;52.038;5.566;2022-09-02T12:55:26;26.40;31.20
68764;DHT22;55754;52.038;5.566;2022-09-02T12:58:09;26.40;30.60
68764;DHT22;55754;52.038;5.566;2022-09-02T13:14:52;26.30;29.80
68764;DHT22;55754;52.038;5.566;2022-09-02T13:31:32;26.30;30.10
68764;DHT22;55754;52.038;5.566;2022-09-02T13:34:04;26.20;30.40
68764;DHT22;55754;52.038;5.566;2022-09-02T13:36:42;26.10;29.50
68764;DHT22;55754;52.038;5.566;2022-09-02T13:42:17;26.00;31.50
68764;DHT22;55754;52.038;5.566;2022-09-02T13:44:44;25.90;31.40
68764;DHT22;55754;52.038;5.566;2022-09-02T13:47:17;25.90;31.80
68764;DHT22;55754;52.038;5.566;2022-09-02T13:49:48;25.80;33.00
68764;DHT22;55754;52.038;5.566;2022-09-02T13:52:19;25.80;32.60
68764;DHT22;55754;52.038;5.566;2022-09-02T13:54:51;25.80;32.90
68764;DHT22;55754;52.038;5.566;2022-09-02T13:57:22;25.80;32.80
68764;DHT22;55754;52.038;5.566;2022-09-02T13:59:51;25.90;33.20
68764;DHT22;55754;52.038;5.566;2022-09-02T14:02:21;25.90;33.00
68764;DHT22;55754;52.038;5.566;2022-09-02T14:04:49;25.90;32.70
68764;DHT22;55754;52.038;5.566;2022-09-02T14:07:20;25.90;32.80
68764;DHT22;55754;52.038;5.566;2022-09-02T14:09:48;26.00;32.80
68764;DHT22;55754;52.038;5.566;2022-09-02T14:12:15;26.00;32.70
68764;DHT22;55754;52.038;5.566;2022-09-02T14:14:41;26.10;32.60
68764;DHT22;55754;52.038;5.566;2022-09-02T14:17:24;26.20;32.50
68764;DHT22;55754;52.038;5.566;2022-09-02T14:19:52;26.10;31.00
68764;DHT22;55754;52.038;5.566;2022-09-02T14:22:31;26.00;31.80
68764;DHT22;55754;52.038;5.566;2022-09-02T14:24:57;26.10;31.90
68764;DHT22;55754;52.038;5.566;2022-09-02T14:27:23;26.10;31.60
68764;DHT22;55754;52.038;5.566;2022-09-02T14:29:54;26.10;31.60
68764;DHT22;55754;52.038;5.566;2022-09-02T14:32:26;26.20;31.50
68764;DHT22;55754;52.038;5.566;2022-09-02T14:37:54;26.10;30.10
68764;DHT22;55754;52.038;5.566;2022-09-02T14:40:37;26.20;30.60
68764;DHT22;55754;52.038;5.566;2022-09-02T14:43:13;26.20;30.40
68764;DHT22;55754;52.038;5.566;2022-09-02T14:45:43;26.20;30.70
68764;DHT22;55754;52.038;5.566;2022-09-02T14:48:22;26.20;30.40
68764;DHT22;55754;52.038;5.566;2022-09-02T14:50:59;26.20;30.30
68764;DHT22;55754;52.038;5.566;2022-09-02T14:53:26;26.20;30.40
68764;DHT22;55754;52.038;5.566;2022-09-02T14:55:55;26.20;30.70
68764;DHT22;55754;52.038;5.566;2022-09-02T14:58:23;26.20;30.60
68764;DHT22;55754;52.038;5.566;2022-09-02T15:00:51;26.20;30.60
68764;DHT22;55754;52.038;5.566;2022-09-02T15:03:18;26.20;30.50
68764;DHT22;55754;52.038;5.566;2022-09-02T15:05:44;26.20;30.70
68764;DHT22;55754;52.038;5.566;2022-09-02T15:08:11;26.20;30.50
68764;DHT22;55754;52.038;5.566;2022-09-02T15:10:37;26.20;30.00
68764;DHT22;55754;52.038;5.566;2022-09-02T15:13:10;26.20;29.90
68764;DHT22;55754;52.038;5.566;2022-09-02T15:15:37;26.20;30.10
68764;DHT22;55754;52.038;5.566;2022-09-02T15:18:03;26.20;30.10
68764;DHT22;55754;52.038;5.566;2022-09-02T15:20:30;26.30;30.30
68764;DHT22;55754;52.038;5.566;2022-09-02T15:22:56;26.30;30.10
68764;DHT22;55754;52.038;5.566;2022-09-02T15:25:21;26.30;30.00
68764;DHT22;55754;52.038;5.566;2022-09-02T15:27:47;26.20;30.00
68764;DHT22;55754;52.038;5.566;2022-09-02T15:30:13;26.30;30.10
68764;DHT22;55754;52.038;5.566;2022-09-02T15:32:39;26.30;30.00
68764;DHT22;55754;52.038;5.566;2022-09-02T15:35:06;26.30;29.90
68764;DHT22;55754;52.038;5.566;2022-09-02T15:37:32;26.20;30.00
68764;DHT22;55754;52.038;5.566;2022-09-02T15:40:04;26.20;30.00
68764;DHT22;55754;52.038;5.566;2022-09-02T15:42:35;26.20;30.10
68764;DHT22;55754;52.038;5.566;2022-09-02T15:45:01;26.30;30.00
68764;DHT22;55754;52.038;5.566;2022-09-02T15:47:28;26.30;30.00
68764;DHT22;55754;52.038;5.566;2022-09-02T15:49:55;26.20;30.00
68764;DHT22;55754;52.038;5.566;2022-09-02T15:52:22;26.20;29.90
68764;DHT22;55754;52.038;5.566;2022-09-02T15:54:48;26.10;30.00
68764;DHT22;55754;52.038;5.566;2022-09-02T15:57:13;26.20;29.50
68764;DHT22;55754;52.038;5.566;2022-09-02T15:59:39;26.10;29.50
68764;DHT22;55754;52.038;5.566;2022-09-02T16:02:05;26.00;29.50
68764;DHT22;55754;52.038;5.566;2022-09-02T16:04:31;26.00;29.80
68764;DHT22;55754;52.038;5.566;2022-09-02T16:06:57;26.10;29.60
68764;DHT22;55754;52.038;5.566;2022-09-02T16:09:23;26.10;29.50
68764;DHT22;55754;52.038;5.566;2022-09-02T16:11:50;26.00;29.60
68764;DHT22;55754;52.038;5.566;2022-09-02T16:14:17;26.10;29.70
68764;DHT22;55754;52.038;5.566;2022-09-02T16:16:44;25.90;29.80
68764;DHT22;55754;52.038;5.566;2022-09-02T16:19:10;25.90;29.30
68764;DHT22;55754;52.038;5.566;2022-09-02T16:21:37;25.90;29.40
68764;DHT22;55754;52.038;5.566;2022-09-02T16:24:09;25.90;29.40
68764;DHT22;55754;52.038;5.566;2022-09-02T16:26:39;25.80;29.40
68764;DHT22;55754;52.038;5.566;2022-09-02T16:29:10;25.90;29.70
68764;DHT22;55754;52.038;5.566;2022-09-02T16:31:41;25.90;29.80
68764;DHT22;55754;52.038;5.566;2022-09-02T16:34:09;25.90;29.70
68764;DHT22;55754;52.038;5.566;2022-09-02T16:36:37;25.80;29.60
68764;DHT22;55754;52.038;5.566;2022-09-02T16:39:03;25.80;29.60
68764;DHT22;55754;52.038;5.566;2022-09-02T16:41:31;25.90;29.80
68764;DHT22;55754;52.038;5.566;2022-09-02T16:44:07;25.80;29.80
68764;DHT22;55754;52.038;5.566;2022-09-02T16:46:34;25.80;29.80
68764;DHT22;55754;52.038;5.566;2022-09-02T16:49:01;25.80;29.90
68764;DHT22;55754;52.038;5.566;2022-09-02T16:51:27;25.80;29.80
68764;DHT22;55754;52.038;5.566;2022-09-02T16:53:56;25.80;29.90
68764;DHT22;55754;52.038;5.566;2022-09-02T16:56:22;25.70;29.80
68764;DHT22;55754;52.038;5.566;2022-09-02T16:58:49;25.70;29.90
68764;DHT22;55754;52.038;5.566;2022-09-02T17:01:15;25.70;29.90
68764;DHT22;55754;52.038;5.566;2022-09-02T17:03:43;25.70;29.90
68764;DHT22;55754;52.038;5.566;2022-09-02T17:06:10;25.70;29.70
68764;DHT22;55754;52.038;5.566;2022-09-02T17:08:37;25.70;29.80
68764;DHT22;55754;52.038;5.566;2022-09-02T17:11:23;25.70;29.90
68764;DHT22;55754;52.038;5.566;2022-09-02T17:13:56;25.70;29.50
68764;DHT22;55754;52.038;5.566;2022-09-02T17:16:25;25.60;29.70
68764;DHT22;55754;52.038;5.566;2022-09-02T17:18:52;25.60;29.80
68764;DHT22;55754;52.038;5.566;2022-09-02T17:23:59;25.50;28.90
68764;DHT22;55754;52.038;5.566;2022-09-02T17:26:27;25.50;29.50
68764;DHT22;55754;52.038;5.566;2022-09-02T17:28:54;25.50;29.50
68764;DHT22;55754;52.038;5.566;2022-09-02T17:31:30;25.40;30.20
68764;DHT22;55754;52.038;5.566;2022-09-02T17:33:58;25.40;29.50
68764;DHT22;55754;52.038;5.566;2022-09-02T17:36:26;25.40;30.70
68764;DHT22;55754;52.038;5.566;2022-09-02T17:39:04;25.40;30.00
68764;DHT22;55754;52.038;5.566;2022-09-02T17:41:30;25.30;30.00
68764;DHT22;55754;52.038;5.566;2022-09-02T17:44:14;25.30;30.00
68764;DHT22;55754;52.038;5.566;2022-09-02T17:46:42;25.20;29.90
68764;DHT22;55754;52.038;5.566;2022-09-02T17:49:08;25.10;30.00
68764;DHT22;55754;52.038;5.566;2022-09-02T17:51:34;25.10;30.90
68764;DHT22;55754;52.038;5.566;2022-09-02T17:54:00;25.00;29.90
68764;DHT22;55754;52.038;5.566;2022-09-02T18:10:05;24.80;30.70
68764;DHT22;55754;52.038;5.566;2022-09-02T18:12:33;24.70;30.80
68764;DHT22;55754;52.038;5.566;2022-09-02T18:15:01;24.70;31.00
68764;DHT22;55754;52.038;5.566;2022-09-02T18:17:35;24.70;31.20
68764;DHT22;55754;52.038;5.566;2022-09-02T18:20:26;24.60;31.10
68764;DHT22;55754;52.038;5.566;2022-09-02T18:28:51;24.40;31.60
68764;DHT22;55754;52.038;5.566;2022-09-02T18:31:28;24.40;31.60
68764;DHT22;55754;52.038;5.566;2022-09-02T18:36:46;24.30;31.90